Terminal Aerodrome Forecast
Issued by NWS Sterling, VA

Current Version | Previous Version | Graphics & Text | Print | Product List | Glossary On
Versions: 1 2 3 4 5 6 7 8 9 10 11 12 13 14 15 16 17 18 19 20 21 22
000
FTUS41 KLWX 242328
TAFIAD
TAF
KIAD 242328Z 2500/2606 31006KT P6SM SCT250
     FM250600 VRB04KT P6SM SCT090 BKN200
     FM251000 VRB04KT P6SM BKN090
     FM252100 21007KT 3SM -RA SCT015 OVC050
     FM260000 VRB04KT 2SM -RA SCT008 OVC015
     FM260300 VRB04KT 2SM -RA OVC008=

USA.gov is the U.S. government's official web portal to all federal, state and local government web resources and services.